Terminal Aerodrome Forecast
Issued by NWS

Home | Current Version | Previous Version | Text Only | Print | Product List | Glossary On
Versions: 1 2 3 4 5 6 7 8 9 10 11 12 13 14 15 16 17 18
000
FTUS43 KDLH 211556 AAB
TAFHIB
TAF AMD
KHIB 211556Z 2116/2212 18010G20KT P6SM -SHRA OVC015
     FM212100 17010KT 5SM -SHRA OVC010
     FM220000 18008KT 5SM -SHRA VCTS OVC008CB
     FM220500 22006KT P6SM OVC015
     FM220700 26005KT P6SM BKN035=

USA.gov is the U.S. government's official web portal to all federal, state and local government web resources and services.